Time;durP1;ratioP1;P1;durP2;ratioP2;P2;SDS_P1;SDS_P2;PMS_P1;PMS_P2;Temp;Humidity;BMP_temperature;BMP_pressure;BME280_temperature;BME280_humidity;BME280_pressure;Samples;Min_cycle;Max_cycle;Signal;HPM_P1;HPM_P2
2022/09/18 00:01:45;;;;;;;;;;;;;;;;;;5025665;28;19929;-73
2022/09/18 00:04:12;;;;;;;;;;;;;;;;;;5004883;28;20418;-74
2022/09/18 00:06:39;;;;;;;;;;;;;;;;;;5008400;28;20004;-74
2022/09/18 00:09:07;;;;;;;;;;;;;;;;;;5023634;28;20402;-74
2022/09/18 00:11:34;;;;;;;;;;;;;;;;;;5021567;28;19929;-73
2022/09/18 00:14:02;;;;;;;;;;;;;;;;;;5021762;28;20449;-73
2022/09/18 00:16:29;;;;;;;;;;;;;;;;;;5020045;28;20491;-74
2022/09/18 00:18:56;;;;;;;;;;;;;;;;;;5024481;28;19929;-73
2022/09/18 00:21:23;;;;;;;;;;;;;;;;;;5006132;28;19921;-73
2022/09/18 00:23:50;;;;;;;;;;;;;;;;;;5018921;28;20455;-72
2022/09/18 00:26:17;;;;;;;;;;;;;;;;;;5020801;28;19975;-74
2022/09/18 00:28:44;;;;;;;;;;;;;;;;;;5018459;28;19975;-73
2022/09/18 00:31:11;;;;;;;;;;;;;;;;;;5023667;28;19924;-73
2022/09/18 00:33:38;;;;;;;;;;;;;;;;;;5019796;28;19929;-73
2022/09/18 00:36:05;;;;;;;;;;;;;;;;;;5024212;28;20024;-73
2022/09/18 00:38:32;;;;;;;;;;;;;;;;;;5018901;28;19925;-73
2022/09/18 00:40:59;;;;;;;;;;;;;;;;;;5017801;28;19929;-73
2022/09/18 00:43:26;;;;;;;;;;;;;;;;;;5028142;28;19951;-73
2022/09/18 00:45:53;;;;;;;;;;;;;;;;;;5023992;28;19936;-74
2022/09/18 00:48:20;;;;;;;;;;;;;;;;;;5006607;28;19986;-73
2022/09/18 00:50:47;;;;;;;;;;;;;;;;;;5024684;28;20338;-73
2022/09/18 00:53:14;;;;;;;;;;;;;;;;;;5022826;28;19936;-73
2022/09/18 00:55:42;;;;;;;;;;;;;;;;;;5023085;28;19929;-74
2022/09/18 00:58:09;;;;;;;;;;;;;;;;;;5004752;28;19932;-73
2022/09/18 01:00:36;;;;;;;;;;;;;;;;;;5022034;28;19925;-73
2022/09/18 01:03:03;;;;;;;;;;;;;;;;;;5009740;28;19971;-73
2022/09/18 01:05:30;;;;;;;;;;;;;;;;;;5011759;28;20023;-74
2022/09/18 01:07:57;;;;;;;;;;;;;;;;;;5028263;28;20011;-73
2022/09/18 01:10:24;;;;;;;;;;;;;;;;;;5019884;28;19965;-73
2022/09/18 01:12:51;;;;;;;;;;;;;;;;;;5023858;28;19928;-73
2022/09/18 01:15:18;;;;;;;;;;;;;;;;;;5022066;28;19925;-74
2022/09/18 01:17:45;;;;;;;;;;;;;;;;;;5027561;28;19928;-73
2022/09/18 01:20:13;;;;;;;;;;;;;;;;;;5007328;28;19924;-73
2022/09/18 01:22:40;;;;;;;;;;;;;;;;;;5009766;28;20030;-73
2022/09/18 01:25:07;;;;;;;;;;;;;;;;;;5026560;28;20299;-73
2022/09/18 01:27:34;;;;;;;;;;;;;;;;;;5007792;28;19929;-73
2022/09/18 01:30:01;;;;;;;;;;;;;;;;;;5024585;28;19928;-73
2022/09/18 01:32:28;;;;;;;;;;;;;;;;;;5022349;28;19987;-74
2022/09/18 01:34:55;;;;;;;;;;;;;;;;;;5024359;28;19933;-73
2022/09/18 01:37:22;;;;;;;;;;;;;;;;;;5006797;28;19935;-73
2022/09/18 01:39:49;;;;;;;;;;;;;;;;;;5025127;28;20303;-73
2022/09/18 01:42:17;;;;;;;;;;;;;;;;;;5024344;28;19928;-73
2022/09/18 01:44:44;;;;;;;;;;;;;;;;;;5006916;28;19966;-74
2022/09/18 01:47:11;;;;;;;;;;;;;;;;;;5025252;28;20378;-73
2022/09/18 01:49:38;;;;;;;;;;;;;;;;;;5026174;28;19928;-74
2022/09/18 01:52:05;;;;;;;;;;;;;;;;;;5009825;28;20469;-74
2022/09/18 01:54:32;;;;;;;;;;;;;;;;;;5005682;28;20572;-74
2022/09/18 01:56:59;;;;;;;;;;;;;;;;;;5009888;28;19936;-74
2022/09/18 01:59:26;;;;;;;;;;;;;;;;;;5026394;28;19976;-74
2022/09/18 02:01:53;;;;;;;;;;;;;;;;;;5021363;28;19921;-73
2022/09/18 02:04:20;;;;;;;;;;;;;;;;;;5025000;28;19932;-73
2022/09/18 02:06:47;;;;;;;;;;;;;;;;;;5010112;28;20403;-73
2022/09/18 02:09:14;;;;;;;;;;;;;;;;;;5025900;28;19943;-73
2022/09/18 02:11:41;;;;;;;;;;;;;;;;;;5009251;28;20568;-73
2022/09/18 02:14:08;;;;;;;;;;;;;;;;;;5006912;28;19921;-73
2022/09/18 02:16:35;;;;;;;;;;;;;;;;;;5027551;28;19921;-73
2022/09/18 02:19:02;;;;;;;;;;;;;;;;;;5026583;28;20414;-73
2022/09/18 02:21:29;;;;;;;;;;;;;;;;;;5024161;28;19990;-73
2022/09/18 02:23:56;;;;;;;;;;;;;;;;;;5007048;28;19921;-73
2022/09/18 02:26:23;;;;;;;;;;;;;;;;;;5024782;28;19929;-73
2022/09/18 02:28:53;;;;;;;;;;;;;;;;;;5007596;28;20670;-73
2022/09/18 02:31:20;;;;;;;;;;;;;;;;;;5020803;28;19928;-73
2022/09/18 02:33:47;;;;;;;;;;;;;;;;;;5024388;28;19925;-73
2022/09/18 02:36:14;;;;;;;;;;;;;;;;;;5002918;28;19924;-73
2022/09/18 02:38:41;;;;;;;;;;;;;;;;;;5025503;28;19929;-73
2022/09/18 02:41:08;;;;;;;;;;;;;;;;;;5025750;28;19929;-73
2022/09/18 02:43:35;;;;;;;;;;;;;;;;;;5022862;28;20402;-73
2022/09/18 02:46:02;;;;;;;;;;;;;;;;;;5005673;28;19925;-73
2022/09/18 02:48:29;;;;;;;;;;;;;;;;;;5023208;28;20722;-73
2022/09/18 02:50:56;;;;;;;;;;;;;;;;;;5007376;28;19921;-73
2022/09/18 02:53:23;;;;;;;;;;;;;;;;;;5026488;28;20431;-73
2022/09/18 02:55:50;;;;;;;;;;;;;;;;;;5022998;28;19932;-73
2022/09/18 02:58:17;;;;;;;;;;;;;;;;;;5025715;28;19925;-73
2022/09/18 03:00:44;;;;;;;;;;;;;;;;;;5021510;28;19925;-73
2022/09/18 03:03:11;;;;;;;;;;;;;;;;;;5024826;28;19979;-73
2022/09/18 03:05:38;;;;;;;;;;;;;;;;;;5025097;28;19928;-73
2022/09/18 03:08:05;;;;;;;;;;;;;;;;;;5026496;28;19929;-73
2022/09/18 03:10:32;;;;;;;;;;;;;;;;;;5012530;28;19971;-73
2022/09/18 03:13:00;;;;;;;;;;;;;;;;;;5026240;28;19925;-73
2022/09/18 03:15:27;;;;;;;;;;;;;;;;;;5024317;28;20040;-73
2022/09/18 03:17:54;;;;;;;;;;;;;;;;;;5023771;28;19921;-73
2022/09/18 03:20:21;;;;;;;;;;;;;;;;;;5015856;28;19937;-73
2022/09/18 03:22:48;;;;;;;;;;;;;;;;;;5026245;28;19925;-73
2022/09/18 03:25:15;;;;;;;;;;;;;;;;;;5023205;28;19936;-73
2022/09/18 03:27:42;;;;;;;;;;;;;;;;;;5026548;28;19921;-73
2022/09/18 03:30:09;;;;;;;;;;;;;;;;;;5023679;28;19943;-73
2022/09/18 03:32:36;;;;;;;;;;;;;;;;;;5024988;28;19983;-73
2022/09/18 03:35:03;;;;;;;;;;;;;;;;;;5004751;28;19925;-73
2022/09/18 03:37:30;;;;;;;;;;;;;;;;;;5004479;28;19932;-73
2022/09/18 03:39:57;;;;;;;;;;;;;;;;;;5026918;28;19921;-73
2022/09/18 03:42:24;;;;;;;;;;;;;;;;;;5006119;28;20688;-72
2022/09/18 03:44:51;;;;;;;;;;;;;;;;;;5024106;28;19925;-72
2022/09/18 03:47:18;;;;;;;;;;;;;;;;;;5009549;28;20051;-74
2022/09/18 03:49:45;;;;;;;;;;;;;;;;;;5024537;28;19925;-72
2022/09/18 03:52:13;;;;;;;;;;;;;;;;;;5023424;28;19921;-71
2022/09/18 03:54:40;;;;;;;;;;;;;;;;;;5007299;28;19979;-73
2022/09/18 03:57:07;;;;;;;;;;;;;;;;;;5023246;28;19952;-72
2022/09/18 03:59:34;;;;;;;;;;;;;;;;;;5023328;28;19987;-73
2022/09/18 04:02:01;;;;;;;;;;;;;;;;;;5025604;28;19931;-73
2022/09/18 04:04:28;;;;;;;;;;;;;;;;;;5022840;28;19976;-73
2022/09/18 04:06:55;;;;;;;;;;;;;;;;;;5006568;28;19936;-73
2022/09/18 04:09:22;;;;;;;;;;;;;;;;;;5022002;28;19936;-73
2022/09/18 04:11:49;;;;;;;;;;;;;;;;;;5003092;28;20002;-73
2022/09/18 04:14:16;;;;;;;;;;;;;;;;;;5018520;28;19960;-73
2022/09/18 04:16:43;;;;;;;;;;;;;;;;;;5022280;28;19928;-73
2022/09/18 04:19:10;;;;;;;;;;;;;;;;;;5008126;28;19929;-73
2022/09/18 04:21:37;;;;;;;;;;;;;;;;;;5024246;28;20575;-73
2022/09/18 04:24:05;;;;;;;;;;;;;;;;;;5005248;28;19964;-73
2022/09/18 04:26:32;;;;;;;;;;;;;;;;;;5014319;28;20644;-74
2022/09/18 04:28:59;;;;;;;;;;;;;;;;;;5024127;28;19925;-74
2022/09/18 04:31:26;;;;;;;;;;;;;;;;;;5020151;28;20414;-73
2022/09/18 04:33:53;;;;;;;;;;;;;;;;;;5017756;28;19921;-74
2022/09/18 04:36:20;;;;;;;;;;;;;;;;;;5025046;28;20015;-73
2022/09/18 04:38:47;;;;;;;;;;;;;;;;;;5028373;28;20634;-74
2022/09/18 04:41:14;;;;;;;;;;;;;;;;;;5028928;28;19925;-74
2022/09/18 04:43:42;;;;;;;;;;;;;;;;;;5029257;28;19929;-74
2022/09/18 04:46:09;;;;;;;;;;;;;;;;;;5029086;28;19947;-75
2022/09/18 04:48:36;;;;;;;;;;;;;;;;;;5010429;28;19929;-74
2022/09/18 04:51:03;;;;;;;;;;;;;;;;;;5024237;28;19932;-73
2022/09/18 04:53:31;;;;;;;;;;;;;;;;;;5028741;28;19932;-74
2022/09/18 04:55:58;;;;;;;;;;;;;;;;;;5026617;28;19921;-74
2022/09/18 04:58:25;;;;;;;;;;;;;;;;;;5011033;28;19921;-74
2022/09/18 05:00:52;;;;;;;;;;;;;;;;;;5024311;28;19928;-75
2022/09/18 05:03:21;;;;;;;;;;;;;;;;;;5025401;28;20319;-74
2022/09/18 05:05:48;;;;;;;;;;;;;;;;;;5007679;28;20015;-74
2022/09/18 05:08:15;;;;;;;;;;;;;;;;;;5001522;28;20395;-74
2022/09/18 05:10:42;;;;;;;;;;;;;;;;;;5028059;28;19928;-74
2022/09/18 05:13:09;;;;;;;;;;;;;;;;;;5027736;28;19945;-74
2022/09/18 05:15:36;;;;;;;;;;;;;;;;;;5007352;28;20007;-75
2022/09/18 05:18:03;;;;;;;;;;;;;;;;;;5023774;28;20295;-75
2022/09/18 05:20:30;;;;;;;;;;;;;;;;;;5028072;28;19940;-75
2022/09/18 05:22:57;;;;;;;;;;;;;;;;;;5027755;28;19944;-75
2022/09/18 05:25:26;;;;;;;;;;;;;;;;;;5030763;28;19979;-75
2022/09/18 05:27:53;;;;;;;;;;;;;;;;;;5027692;28;19921;-75
2022/09/18 05:30:20;;;;;;;;;;;;;;;;;;5027537;28;19925;-74
2022/09/18 05:32:47;;;;;;;;;;;;;;;;;;5020376;28;19929;-74
2022/09/18 05:35:14;;;;;;;;;;;;;;;;;;5024057;28;20394;-75
2022/09/18 05:37:41;;;;;;;;;;;;;;;;;;5017091;28;19929;-75
2022/09/18 05:40:08;;;;;;;;;;;;;;;;;;5021796;28;19921;-75
2022/09/18 05:42:35;;;;;;;;;;;;;;;;;;5020815;28;19925;-75
2022/09/18 05:45:02;;;;;;;;;;;;;;;;;;5025945;28;19929;-75
2022/09/18 05:47:31;;;;;;;;;;;;;;;;;;5022112;28;20338;-75
2022/09/18 05:49:58;;;;;;;;;;;;;;;;;;5023789;28;20010;-75
2022/09/18 05:52:25;;;;;;;;;;;;;;;;;;5020845;28;19983;-75
2022/09/18 05:54:52;;;;;;;;;;;;;;;;;;5020981;28;19921;-75
2022/09/18 05:57:19;;;;;;;;;;;;;;;;;;5019415;28;19932;-75
2022/09/18 05:59:46;;;;;;;;;;;;;;;;;;5000660;28;19936;-77
2022/09/18 06:02:13;;;;;;;;;;;;;;;;;;5023120;28;19921;-74
2022/09/18 06:04:40;;;;;;;;;;;;;;;;;;5006001;28;19925;-75
2022/09/18 06:07:07;;;;;;;;;;;;;;;;;;5006190;28;19925;-74
2022/09/18 06:09:34;;;;;;;;;;;;;;;;;;5006503;28;19931;-75
2022/09/18 06:12:01;;;;;;;;;;;;;;;;;;5024715;28;20563;-75
2022/09/18 06:14:28;;;;;;;;;;;;;;;;;;5021987;28;19929;-75
2022/09/18 06:16:55;;;;;;;;;;;;;;;;;;4999127;28;20359;-74
2022/09/18 06:19:22;;;;;;;;;;;;;;;;;;5016844;28;20011;-73
2022/09/18 06:21:49;;;;;;;;;;;;;;;;;;5024897;28;19924;-74
2022/09/18 06:24:16;;;;;;;;;;;;;;;;;;5021014;28;19925;-73
2022/09/18 06:26:43;;;;;;;;;;;;;;;;;;5002792;28;20407;-75
2022/09/18 06:29:10;;;;;;;;;;;;;;;;;;4998772;28;19933;-74
2022/09/18 06:31:37;;;;;;;;;;;;;;;;;;5024822;28;19930;-74
2022/09/18 06:34:04;;;;;;;;;;;;;;;;;;4998212;28;20388;-75
2022/09/18 06:36:31;;;;;;;;;;;;;;;;;;5020518;28;19925;-76
2022/09/18 06:38:58;;;;;;;;;;;;;;;;;;5023504;28;20260;-76
2022/09/18 06:41:25;;;;;;;;;;;;;;;;;;5005657;28;19928;-74
2022/09/18 06:43:52;;;;;;;;;;;;;;;;;;5023476;28;19944;-73
2022/09/18 06:46:19;;;;;;;;;;;;;;;;;;5023416;28;19933;-72
2022/09/18 06:48:46;;;;;;;;;;;;;;;;;;5020940;28;19925;-72
2022/09/18 06:51:13;;;;;;;;;;;;;;;;;;5004131;28;19975;-72
2022/09/18 06:53:40;;;;;;;;;;;;;;;;;;5023376;28;19921;-72
2022/09/18 06:56:07;;;;;;;;;;;;;;;;;;5023330;28;19975;-73
2022/09/18 06:58:34;;;;;;;;;;;;;;;;;;5004277;28;19925;-73
2022/09/18 07:01:01;;;;;;;;;;;;;;;;;;5021464;28;19932;-74
2022/09/18 07:03:28;;;;;;;;;;;;;;;;;;5004270;28;19928;-74
2022/09/18 07:05:55;;;;;;;;;;;;;;;;;;5023555;28;20422;-74
2022/09/18 07:08:22;;;;;;;;;;;;;;;;;;5019360;28;19932;-74
2022/09/18 07:10:49;;;;;;;;;;;;;;;;;;5023230;28;19925;-74
2022/09/18 07:13:17;;;;;;;;;;;;;;;;;;4996696;28;19929;-74
2022/09/18 07:15:44;;;;;;;;;;;;;;;;;;5021848;28;19927;-73
2022/09/18 07:18:11;;;;;;;;;;;;;;;;;;5023719;28;20652;-74
2022/09/18 07:20:38;;;;;;;;;;;;;;;;;;5023322;28;19932;-73
2022/09/18 07:23:05;;;;;;;;;;;;;;;;;;5020816;28;20277;-74
2022/09/18 07:25:32;;;;;;;;;;;;;;;;;;5024078;28;19924;-74
2022/09/18 07:27:59;;;;;;;;;;;;;;;;;;5022002;28;20402;-75
2022/09/18 07:30:26;;;;;;;;;;;;;;;;;;4998114;28;19925;-75
2022/09/18 07:32:53;;;;;;;;;;;;;;;;;;5022196;28;20000;-74
2022/09/18 07:35:20;;;;;;;;;;;;;;;;;;5023689;28;20067;-75
2022/09/18 07:37:47;;;;;;;;;;;;;;;;;;5023745;28;20051;-75
2022/09/18 07:40:14;;;;;;;;;;;;;;;;;;5024394;28;20404;-75
2022/09/18 07:42:41;;;;;;;;;;;;;;;;;;4998386;28;19972;-75
2022/09/18 07:45:08;;;;;;;;;;;;;;;;;;5002918;28;19974;-74
2022/09/18 07:47:35;;;;;;;;;;;;;;;;;;5020205;28;21060;-75
2022/09/18 07:50:02;;;;;;;;;;;;;;;;;;5022300;28;19929;-75
2022/09/18 07:52:30;;;;;;;;;;;;;;;;;;5005789;28;19921;-74
2022/09/18 07:54:57;;;;;;;;;;;;;;;;;;5021408;28;19947;-75
2022/09/18 07:57:25;;;;;;;;;;;;;;;;;;5004227;28;19929;-75
2022/09/18 07:59:52;;;;;;;;;;;;;;;;;;5021763;28;19925;-75
2022/09/18 08:02:19;;;;;;;;;;;;;;;;;;5021182;28;19929;-75
2022/09/18 08:04:46;;;;;;;;;;;;;;;;;;5002139;28;19963;-75
2022/09/18 08:07:13;;;;;;;;;;;;;;;;;;5021563;28;19928;-75
2022/09/18 08:09:40;;;;;;;;;;;;;;;;;;5018247;28;19980;-75
2022/09/18 08:12:07;;;;;;;;;;;;;;;;;;5001102;28;19925;-75
2022/09/18 08:14:34;;;;;;;;;;;;;;;;;;5026064;28;20450;-75
2022/09/18 08:17:01;;;;;;;;;;;;;;;;;;4997765;28;19925;-75
2022/09/18 08:19:28;;;;;;;;;;;;;;;;;;5025713;28;19932;-76
2022/09/18 08:21:55;;;;;;;;;;;;;;;;;;5024351;28;19975;-75
2022/09/18 08:24:22;;;;;;;;;;;;;;;;;;5006025;28;19925;-75
2022/09/18 08:26:49;;;;;;;;;;;;;;;;;;5006361;28;19932;-75
2022/09/18 08:29:18;;;;;;;;;;;;;;;;;;5026354;28;20314;-74
2022/09/18 08:31:45;;;;;;;;;;;;;;;;;;5028685;28;20004;-75
2022/09/18 08:34:12;;;;;;;;;;;;;;;;;;5010346;28;20007;-75
2022/09/18 08:36:39;;;;;;;;;;;;;;;;;;5005521;28;19929;-75
2022/09/18 08:39:06;;;;;;;;;;;;;;;;;;5001453;28;19929;-75
2022/09/18 08:41:33;;;;;;;;;;;;;;;;;;5029476;28;20008;-75
2022/09/18 08:44:00;;;;;;;;;;;;;;;;;;5025563;28;19925;-74
2022/09/18 08:46:28;;;;;;;;;;;;;;;;;;5028359;28;19928;-74
2022/09/18 08:48:55;;;;;;;;;;;;;;;;;;5007778;28;19925;-75
2022/09/18 08:51:22;;;;;;;;;;;;;;;;;;5027379;28;19952;-75
2022/09/18 08:53:49;;;;;;;;;;;;;;;;;;5008359;28;19929;-75
2022/09/18 08:56:16;;;;;;;;;;;;;;;;;;5027041;28;19929;-75
2022/09/18 08:58:43;;;;;;;;;;;;;;;;;;5007284;28;19921;-75
2022/09/18 09:01:10;;;;;;;;;;;;;;;;;;5010913;28;19980;-75
2022/09/18 09:03:37;;;;;;;;;;;;;;;;;;5027819;28;19924;-75
2022/09/18 09:06:04;;;;;;;;;;;;;;;;;;5026137;28;19927;-75
2022/09/18 09:08:31;;;;;;;;;;;;;;;;;;5009352;28;20395;-74
2022/09/18 09:10:58;;;;;;;;;;;;;;;;;;5014091;28;19921;-75
2022/09/18 09:13:25;;;;;;;;;;;;;;;;;;5024286;28;19925;-75
2022/09/18 09:15:52;;;;;;;;;;;;;;;;;;5008707;28;19931;-75
2022/09/18 09:18:19;;;;;;;;;;;;;;;;;;5023640;28;20442;-75
2022/09/18 09:20:46;;;;;;;;;;;;;;;;;;5023149;28;19925;-74
2022/09/18 09:23:13;;;;;;;;;;;;;;;;;;5027683;28;19983;-74
2022/09/18 09:25:40;;;;;;;;;;;;;;;;;;5021673;28;20392;-73
2022/09/18 09:28:07;;;;;;;;;;;;;;;;;;5023121;28;19929;-73
2022/09/18 09:30:34;;;;;;;;;;;;;;;;;;5025154;28;19921;-74
2022/09/18 09:33:01;;;;;;;;;;;;;;;;;;5009298;28;19970;-73
2022/09/18 09:35:29;;;;;;;;;;;;;;;;;;5022435;28;19925;-74
2022/09/18 09:37:56;;;;;;;;;;;;;;;;;;5021555;28;19936;-73
2022/09/18 09:40:23;;;;;;;;;;;;;;;;;;5025569;28;20638;-73
2022/09/18 09:42:50;;;;;;;;;;;;;;;;;;5021565;28;19921;-74
2022/09/18 09:45:17;;;;;;;;;;;;;;;;;;5023334;28;19940;-74
2022/09/18 09:47:44;;;;;;;;;;;;;;;;;;5022256;28;19925;-74
2022/09/18 09:50:13;;;;;;;;;;;;;;;;;;5021280;28;19925;-74
2022/09/18 09:52:40;;;;;;;;;;;;;;;;;;5024183;28;19925;-75
2022/09/18 09:55:07;;;;;;;;;;;;;;;;;;5025906;28;19924;-75
2022/09/18 09:57:34;;;;;;;;;;;;;;;;;;5023584;28;19929;-75
2022/09/18 10:00:01;;;;;;;;;;;;;;;;;;5002822;28;19925;-75
2022/09/18 10:02:28;;;;;;;;;;;;;;;;;;5023238;28;19925;-75
2022/09/18 10:04:55;;;;;;;;;;;;;;;;;;5024117;28;19936;-75
2022/09/18 10:07:22;;;;;;;;;;;;;;;;;;5021142;28;19929;-75
2022/09/18 10:09:49;;;;;;;;;;;;;;;;;;5007615;28;19921;-75
2022/09/18 10:12:16;;;;;;;;;;;;;;;;;;5023644;28;19936;-76
2022/09/18 10:14:43;;;;;;;;;;;;;;;;;;5022815;28;19921;-76
2022/09/18 10:17:10;;;;;;;;;;;;;;;;;;5023765;28;19928;-75
2022/09/18 10:19:37;;;;;;;;;;;;;;;;;;5006713;28;19925;-75
2022/09/18 10:22:04;;;;;;;;;;;;;;;;;;5006747;28;19971;-76
2022/09/18 10:24:31;;;;;;;;;;;;;;;;;;5001794;28;19968;-76
2022/09/18 10:26:58;;;;;;;;;;;;;;;;;;5022516;28;19929;-76
2022/09/18 10:29:25;;;;;;;;;;;;;;;;;;5006887;28;20278;-76
2022/09/18 10:31:52;;;;;;;;;;;;;;;;;;5016960;28;19925;-76
2022/09/18 10:34:19;;;;;;;;;;;;;;;;;;5004549;28;19921;-76
2022/09/18 10:36:46;;;;;;;;;;;;;;;;;;4999789;28;19924;-76
2022/09/18 10:39:14;;;;;;;;;;;;;;;;;;5003753;28;19921;-76
2022/09/18 10:41:42;;;;;;;;;;;;;;;;;;5007836;28;20458;-76
2022/09/18 10:44:09;;;;;;;;;;;;;;;;;;5021871;28;19936;-76
2022/09/18 10:46:36;;;;;;;;;;;;;;;;;;4999842;28;19931;-76
2022/09/18 10:49:03;;;;;;;;;;;;;;;;;;5005908;28;19932;-76
2022/09/18 10:51:30;;;;;;;;;;;;;;;;;;5004966;28;20023;-75
2022/09/18 10:53:57;;;;;;;;;;;;;;;;;;5023840;28;20351;-75
2022/09/18 10:56:24;;;;;;;;;;;;;;;;;;5003242;28;19931;-76
2022/09/18 10:58:51;;;;;;;;;;;;;;;;;;5009215;28;19925;-75
2022/09/18 11:01:18;;;;;;;;;;;;;;;;;;5018823;28;19929;-76
2022/09/18 11:03:45;;;;;;;;;;;;;;;;;;5001433;28;19928;-75
2022/09/18 11:06:12;;;;;;;;;;;;;;;;;;5022795;28;19925;-75
2022/09/18 11:08:39;;;;;;;;;;;;;;;;;;5021451;28;19928;-75
2022/09/18 11:11:06;;;;;;;;;;;;;;;;;;5006740;28;19931;-75
2022/09/18 11:13:33;;;;;;;;;;;;;;;;;;5005504;28;19933;-75
2022/09/18 11:16:01;;;;;;;;;;;;;;;;;;5007727;28;20399;-75
2022/09/18 11:18:28;;;;;;;;;;;;;;;;;;5000401;28;19930;-75
2022/09/18 11:20:55;;;;;;;;;;;;;;;;;;5009471;28;19948;-81
2022/09/18 11:23:22;;;;;;;;;;;;;;;;;;5006720;28;19929;-80
2022/09/18 11:25:49;;;;;;;;;;;;;;;;;;5009269;28;19921;-77
2022/09/18 11:28:16;;;;;;;;;;;;;;;;;;4998741;28;20306;-74
2022/09/18 11:30:43;;;;;;;;;;;;;;;;;;5020798;28;19932;-73
2022/09/18 11:33:10;;;;;;;;;;;;;;;;;;5002784;28;19925;-74
2022/09/18 11:35:37;;;;;;;;;;;;;;;;;;5019916;28;19925;-76
2022/09/18 11:38:06;;;;;;;;;;;;;;;;;;5004601;28;19922;-76
2022/09/18 11:40:33;;;;;;;;;;;;;;;;;;5015372;28;19960;-77
2022/09/18 11:43:04;;;;;;;;;;;;;;;;;;5022727;28;19987;-77
2022/09/18 11:45:31;;;;;;;;;;;;;;;;;;5001214;28;19931;-75
2022/09/18 11:47:58;;;;;;;;;;;;;;;;;;5025676;28;19929;-77
2022/09/18 11:50:25;;;;;;;;;;;;;;;;;;5023424;28;19928;-76
2022/09/18 11:52:52;;;;;;;;;;;;;;;;;;5021519;28;19925;-75
2022/09/18 11:55:19;;;;;;;;;;;;;;;;;;5022368;28;20368;-76
2022/09/18 11:57:46;;;;;;;;;;;;;;;;;;5008744;28;19921;-76
2022/09/18 12:00:13;;;;;;;;;;;;;;;;;;5003692;28;19931;-76
2022/09/18 12:02:40;;;;;;;;;;;;;;;;;;5004696;28;20299;-76
2022/09/18 12:05:07;;;;;;;;;;;;;;;;;;5005562;28;19927;-76
2022/09/18 12:07:34;;;;;;;;;;;;;;;;;;5006465;28;19921;-76
2022/09/18 12:10:01;;;;;;;;;;;;;;;;;;5025020;28;19932;-77
2022/09/18 12:12:28;;;;;;;;;;;;;;;;;;5004800;28;19929;-77
2022/09/18 12:14:55;;;;;;;;;;;;;;;;;;5002490;28;19939;-77
2022/09/18 12:17:22;;;;;;;;;;;;;;;;;;5022354;28;20419;-77
2022/09/18 12:19:49;;;;;;;;;;;;;;;;;;5010289;28;20334;-78
2022/09/18 12:22:16;;;;;;;;;;;;;;;;;;5009610;28;19925;-78
2022/09/18 12:24:43;;;;;;;;;;;;;;;;;;5002189;28;19925;-78
2022/09/18 12:27:11;;;;;;;;;;;;;;;;;;5004343;28;19931;-77
2022/09/18 12:29:38;;;;;;;;;;;;;;;;;;5005594;28;19922;-78
2022/09/18 12:32:05;;;;;;;;;;;;;;;;;;5002365;28;19928;-78
2022/09/18 12:34:32;;;;;;;;;;;;;;;;;;5021253;28;19940;-80
2022/09/18 12:36:59;;;;;;;;;;;;;;;;;;5000341;28;19928;-78
2022/09/18 12:39:26;;;;;;;;;;;;;;;;;;5002520;28;20372;-78
2022/09/18 12:41:53;;;;;;;;;;;;;;;;;;5000749;28;19972;-78
2022/09/18 12:44:20;;;;;;;;;;;;;;;;;;5020315;28;19928;-78
2022/09/18 12:46:47;;;;;;;;;;;;;;;;;;5006749;28;19983;-80
2022/09/18 12:49:14;;;;;;;;;;;;;;;;;;5002732;28;19921;-79
2022/09/18 12:51:41;;;;;;;;;;;;;;;;;;5003128;28;19974;-76
2022/09/18 12:54:08;;;;;;;;;;;;;;;;;;5003378;28;20347;-73
2022/09/18 12:56:35;;;;;;;;;;;;;;;;;;5002687;28;19943;-79
2022/09/18 12:59:02;;;;;;;;;;;;;;;;;;5006306;28;19925;-79
2022/09/18 13:01:29;;;;;;;;;;;;;;;;;;5006036;28;19941;-80
2022/09/18 13:03:57;;;;;;;;;;;;;;;;;;5005493;28;19927;-80
2022/09/18 13:06:24;;;;;;;;;;;;;;;;;;5002147;28;20403;-80
2022/09/18 13:08:51;;;;;;;;;;;;;;;;;;5005981;28;19928;-79
2022/09/18 13:11:18;;;;;;;;;;;;;;;;;;5002339;28;19929;-79
2022/09/18 13:13:45;;;;;;;;;;;;;;;;;;5006948;28;19929;-76
2022/09/18 13:16:12;;;;;;;;;;;;;;;;;;5007409;28;19955;-79
2022/09/18 13:18:39;;;;;;;;;;;;;;;;;;5004237;28;19933;-78
2022/09/18 13:21:06;;;;;;;;;;;;;;;;;;5003356;28;19980;-78
2022/09/18 13:23:33;;;;;;;;;;;;;;;;;;5007642;28;19924;-76
2022/09/18 13:26:00;;;;;;;;;;;;;;;;;;5003555;28;20590;-77
2022/09/18 13:28:27;;;;;;;;;;;;;;;;;;5008477;28;19986;-74
2022/09/18 13:30:54;;;;;;;;;;;;;;;;;;5021291;28;19925;-78
2022/09/18 13:33:21;;;;;;;;;;;;;;;;;;5009419;28;19995;-77
2022/09/18 13:35:48;;;;;;;;;;;;;;;;;;5006238;28;19924;-78
2022/09/18 13:38:15;;;;;;;;;;;;;;;;;;5006158;28;20383;-78
2022/09/18 13:40:43;;;;;;;;;;;;;;;;;;5007125;28;19925;-72
2022/09/18 13:43:10;;;;;;;;;;;;;;;;;;5000214;28;20012;-77
2022/09/18 13:45:37;;;;;;;;;;;;;;;;;;5008400;28;19964;-77
2022/09/18 13:48:04;;;;;;;;;;;;;;;;;;5002220;28;19925;-77
2022/09/18 13:50:31;;;;;;;;;;;;;;;;;;5005288;28;20481;-77
2022/09/18 13:52:58;;;;;;;;;;;;;;;;;;5006186;28;19921;-77
2022/09/18 13:55:26;;;;;;;;;;;;;;;;;;5002776;28;19921;-79
2022/09/18 13:57:53;;;;;;;;;;;;;;;;;;5006763;28;19925;-78
2022/09/18 14:00:20;;;;;;;;;;;;;;;;;;5008490;28;19961;-74
2022/09/18 14:02:47;;;;;;;;;;;;;;;;;;5006899;28;19921;-74
2022/09/18 14:05:14;;;;;;;;;;;;;;;;;;5008898;28;19932;-78
2022/09/18 14:07:41;;;;;;;;;;;;;;;;;;5008826;28;19928;-77
2022/09/18 14:10:08;;;;;;;;;;;;;;;;;;5008783;28;20357;-77
2022/09/18 14:12:35;;;;;;;;;;;;;;;;;;5004119;28;20400;-74
2022/09/18 14:15:02;;;;;;;;;;;;;;;;;;5005436;28;19953;-77
2022/09/18 14:17:29;;;;;;;;;;;;;;;;;;5003053;28;20016;-78
2022/09/18 14:19:58;;;;;;;;;;;;;;;;;;5010377;28;19968;-76
2022/09/18 14:22:25;;;;;;;;;;;;;;;;;;5024878;28;19928;-76
2022/09/18 14:24:52;;;;;;;;;;;;;;;;;;5007933;28;19983;-79
2022/09/18 14:27:19;;;;;;;;;;;;;;;;;;5009355;28;20652;-77
2022/09/18 14:29:46;;;;;;;;;;;;;;;;;;5005253;28;19921;-77
2022/09/18 14:32:13;;;;;;;;;;;;;;;;;;5003083;28;19921;-78
2022/09/18 14:34:40;;;;;;;;;;;;;;;;;;5008452;28;19928;-77
2022/09/18 14:37:07;;;;;;;;;;;;;;;;;;5007089;28;19925;-77
2022/09/18 14:39:34;;;;;;;;;;;;;;;;;;5002821;28;19925;-77
2022/09/18 14:42:01;;;;;;;;;;;;;;;;;;5009037;28;19929;-77
2022/09/18 14:44:29;;;;;;;;;;;;;;;;;;5005020;28;19924;-77
2022/09/18 14:46:56;;;;;;;;;;;;;;;;;;5020997;28;19939;-78
2022/09/18 14:49:23;;;;;;;;;;;;;;;;;;5002367;28;19925;-78
2022/09/18 14:51:50;;;;;;;;;;;;;;;;;;5008129;28;19925;-78
2022/09/18 14:54:17;;;;;;;;;;;;;;;;;;5001343;28;20325;-77
2022/09/18 14:56:44;;;;;;;;;;;;;;;;;;5008386;28;19940;-77
2022/09/18 14:59:11;;;;;;;;;;;;;;;;;;5002115;28;19922;-77
2022/09/18 15:01:38;;;;;;;;;;;;;;;;;;5006997;28;20303;-78
2022/09/18 15:04:05;;;;;;;;;;;;;;;;;;5001222;28;19924;-77
2022/09/18 15:06:32;;;;;;;;;;;;;;;;;;5018168;28;19931;-76
2022/09/18 15:08:59;;;;;;;;;;;;;;;;;;4999912;28;20031;-80
2022/09/18 15:11:26;;;;;;;;;;;;;;;;;;5000879;28;19973;-78
2022/09/18 15:13:54;;;;;;;;;;;;;;;;;;5003245;28;19937;-75
2022/09/18 15:16:21;;;;;;;;;;;;;;;;;;4998494;28;19954;-71
2022/09/18 15:18:48;;;;;;;;;;;;;;;;;;4997442;28;19925;-74
2022/09/18 15:21:15;;;;;;;;;;;;;;;;;;4999407;28;20016;-76
2022/09/18 15:23:43;;;;;;;;;;;;;;;;;;5003386;28;19929;-76
2022/09/18 15:26:11;;;;;;;;;;;;;;;;;;5002100;28;19925;-76
2022/09/18 15:28:38;;;;;;;;;;;;;;;;;;5002574;28;19928;-78
2022/09/18 15:31:05;;;;;;;;;;;;;;;;;;5007362;28;19944;-79
2022/09/18 15:33:32;;;;;;;;;;;;;;;;;;5007837;28;19935;-76
2022/09/18 15:35:59;;;;;;;;;;;;;;;;;;5022693;28;19921;-77
2022/09/18 15:38:26;;;;;;;;;;;;;;;;;;5009917;28;19932;-76
2022/09/18 15:40:53;;;;;;;;;;;;;;;;;;5004144;28;19932;-75
2022/09/18 15:43:20;;;;;;;;;;;;;;;;;;5019163;28;19932;-76
2022/09/18 15:45:47;;;;;;;;;;;;;;;;;;5019777;28;19929;-75
2022/09/18 15:48:14;;;;;;;;;;;;;;;;;;5001858;28;19921;-75
2022/09/18 15:50:41;;;;;;;;;;;;;;;;;;5003964;28;20544;-75
2022/09/18 15:53:08;;;;;;;;;;;;;;;;;;5002754;28;19964;-77
2022/09/18 15:55:36;;;;;;;;;;;;;;;;;;5005624;28;19996;-76
2022/09/18 15:58:03;;;;;;;;;;;;;;;;;;5005825;28;19928;-76
2022/09/18 16:00:30;;;;;;;;;;;;;;;;;;5003514;28;19975;-77
2022/09/18 16:02:57;;;;;;;;;;;;;;;;;;5002424;28;19944;-76
2022/09/18 16:05:24;;;;;;;;;;;;;;;;;;5004874;28;19968;-76
2022/09/18 16:07:51;;;;;;;;;;;;;;;;;;5002983;28;19925;-74
2022/09/18 16:10:19;;;;;;;;;;;;;;;;;;5002504;28;19925;-76
2022/09/18 16:12:46;;;;;;;;;;;;;;;;;;5006818;28;19928;-75
2022/09/18 16:15:13;;;;;;;;;;;;;;;;;;4997909;28;19924;-75
2022/09/18 16:17:40;;;;;;;;;;;;;;;;;;5004702;28;20302;-75
2022/09/18 16:20:07;;;;;;;;;;;;;;;;;;4999206;28;19971;-75
2022/09/18 16:22:34;;;;;;;;;;;;;;;;;;5023140;28;20609;-76
2022/09/18 16:25:01;;;;;;;;;;;;;;;;;;5005952;28;19921;-75
2022/09/18 16:27:28;;;;;;;;;;;;;;;;;;5022317;28;21045;-76
2022/09/18 16:29:55;;;;;;;;;;;;;;;;;;5002781;28;20402;-74
2022/09/18 16:32:22;;;;;;;;;;;;;;;;;;5005674;28;19931;-75
2022/09/18 16:34:49;;;;;;;;;;;;;;;;;;5011123;28;19932;-75
2022/09/18 16:37:16;;;;;;;;;;;;;;;;;;5009396;28;19928;-75
2022/09/18 16:39:43;;;;;;;;;;;;;;;;;;5010011;28;20018;-75
2022/09/18 16:42:12;;;;;;;;;;;;;;;;;;5006962;28;20409;-75
2022/09/18 16:44:39;;;;;;;;;;;;;;;;;;5028671;28;20674;-72